createdAt,value
2022-10-05T00:01:17.298Z,96217.53
2022-10-05T00:03:45.182Z,96221.16
2022-10-05T00:06:14.060Z,96211.06
2022-10-05T00:08:44.346Z,96227.56
2022-10-05T00:11:14.592Z,96161.09
2022-10-05T00:13:42.927Z,96221.44
2022-10-05T00:16:17.014Z,96218.75
2022-10-05T00:18:47.977Z,96223.84
2022-10-05T00:21:21.881Z,96217.47
2022-10-05T00:23:51.956Z,96213.75
2022-10-05T00:26:22.746Z,96169.72
2022-10-05T00:28:50.670Z,96221.88
2022-10-05T00:31:21.677Z,96216.06
2022-10-05T00:33:50.072Z,96225.97
2022-10-05T00:36:18.407Z,96225.97
2022-10-05T00:38:46.687Z,96223.13
2022-10-05T00:41:22.588Z,96215.00
2022-10-05T00:44:12.612Z,96221.31
2022-10-05T00:46:54.930Z,96225.00
2022-10-05T00:49:39.433Z,96215.34
2022-10-05T00:52:20.292Z,96232.78
2022-10-05T00:54:54.347Z,96225.97
2022-10-05T00:57:35.092Z,96237.28
2022-10-05T01:00:07.603Z,96232.28
2022-10-05T01:02:49.327Z,96236.00
2022-10-05T01:05:30.720Z,96245.13
2022-10-05T01:08:05.131Z,96245.34
2022-10-05T01:10:39.954Z,96254.13
2022-10-05T01:13:19.155Z,96254.06
2022-10-05T01:15:54.383Z,96247.44
2022-10-05T01:18:28.922Z,96243.22
2022-10-05T01:21:04.665Z,96252.38
2022-10-05T01:24:05.212Z,96253.75
2022-10-05T01:26:59.691Z,96241.38
2022-10-05T01:29:34.212Z,96261.84
2022-10-05T01:32:11.172Z,96269.03
2022-10-05T01:34:43.348Z,96274.53
2022-10-05T01:37:20.064Z,96285.25
2022-10-05T01:39:55.000Z,96275.13
2022-10-05T01:42:33.314Z,96286.72
2022-10-05T01:45:09.645Z,96281.66
2022-10-05T01:47:44.509Z,96300.16
2022-10-05T01:50:23.839Z,96298.25
2022-10-05T01:53:01.412Z,96297.28
2022-10-05T01:55:36.081Z,96298.72
2022-10-05T01:58:17.021Z,96295.56
2022-10-05T02:00:58.188Z,96299.63
2022-10-05T02:03:31.127Z,96308.94
2022-10-05T02:06:04.492Z,96306.59
2022-10-05T02:08:35.810Z,96304.38
2022-10-05T02:11:07.733Z,96304.66
2022-10-05T02:13:40.356Z,96307.63
2022-10-05T02:16:15.618Z,96309.91
2022-10-05T02:18:50.980Z,96258.09
2022-10-05T02:21:20.609Z,96307.88
2022-10-05T02:23:52.603Z,96302.97
2022-10-05T02:26:20.593Z,96308.53
2022-10-05T02:28:53.542Z,96316.03
2022-10-05T02:31:27.168Z,96315.97
2022-10-05T02:34:22.505Z,96321.69
2022-10-05T02:36:57.952Z,96324.19
2022-10-05T02:39:35.808Z,96318.91
2022-10-05T02:42:13.743Z,96316.28
2022-10-05T02:44:52.759Z,96319.81
2022-10-05T02:47:33.464Z,96318.72
2022-10-05T02:50:09.441Z,96318.72
2022-10-05T02:52:46.171Z,96253.19
2022-10-05T02:55:19.575Z,96312.41
2022-10-05T02:57:55.350Z,96311.34
2022-10-05T03:00:25.631Z,96308.31
2022-10-05T03:03:02.265Z,96320.94
2022-10-05T03:05:36.512Z,96326.84
2022-10-05T03:08:10.544Z,96325.28
2022-10-05T03:10:44.425Z,96326.69
2022-10-05T03:13:24.273Z,96328.03
2022-10-05T03:16:07.305Z,96323.69
2022-10-05T03:18:49.403Z,96325.59
2022-10-05T03:21:31.207Z,96328.59
2022-10-05T03:24:21.830Z,96320.94
2022-10-05T03:27:01.752Z,96340.69
2022-10-05T03:29:37.462Z,96343.09
2022-10-05T03:32:18.582Z,96344.22
2022-10-05T03:34:54.904Z,96348.50
2022-10-05T03:37:30.347Z,96359.78
2022-10-05T03:40:05.884Z,96358.25
2022-10-05T03:42:39.979Z,96354.03
2022-10-05T03:45:20.348Z,96360.00
2022-10-05T03:48:01.023Z,96362.22
2022-10-05T03:50:43.374Z,96355.31
2022-10-05T03:53:19.703Z,96374.13
2022-10-05T03:55:53.768Z,96378.09
2022-10-05T03:58:25.070Z,96383.75
2022-10-05T04:00:59.473Z,96385.41
2022-10-05T04:03:34.055Z,96392.94
2022-10-05T04:06:11.256Z,96382.78
2022-10-05T04:08:47.910Z,96384.94
2022-10-05T04:11:22.349Z,96384.63
2022-10-05T04:13:54.927Z,96386.59
2022-10-05T04:16:28.863Z,96378.34
2022-10-05T04:19:02.449Z,96387.69
2022-10-05T04:21:36.275Z,96389.81
2022-10-05T04:24:11.268Z,96389.31
2022-10-05T04:26:45.020Z,96391.41
2022-10-05T04:29:20.424Z,96400.22
2022-10-05T04:31:58.296Z,96390.81
2022-10-05T04:34:45.592Z,96393.66
2022-10-05T04:37:21.444Z,96394.94
2022-10-05T04:40:01.996Z,96403.56
2022-10-05T04:42:36.383Z,96405.44
2022-10-05T04:45:13.143Z,96428.06
2022-10-05T04:48:06.225Z,96429.88
2022-10-05T04:50:49.148Z,96432.38
2022-10-05T04:53:26.700Z,96432.44
2022-10-05T04:56:00.008Z,96431.41
2022-10-05T04:58:48.912Z,96434.44
2022-10-05T05:01:34.657Z,96425.41
2022-10-05T05:04:16.223Z,96425.31
2022-10-05T05:06:56.508Z,96423.88
2022-10-05T05:09:47.506Z,96413.13
2022-10-05T05:12:25.182Z,96422.28
2022-10-05T05:15:18.066Z,96351.75
2022-10-05T05:18:02.199Z,96406.78
2022-10-05T05:20:44.487Z,96406.63
2022-10-05T05:23:22.195Z,96420.91
2022-10-05T05:26:01.696Z,96420.44
2022-10-05T05:28:36.563Z,96405.69
2022-10-05T05:31:11.430Z,96419.66
2022-10-05T05:33:55.241Z,96421.69
2022-10-05T05:36:43.147Z,96426.97
2022-10-05T05:39:29.464Z,96427.84
2022-10-05T05:42:08.014Z,96435.84
2022-10-05T05:44:43.820Z,96438.78
2022-10-05T05:47:21.643Z,96413.03
2022-10-05T05:50:07.700Z,96435.34
2022-10-05T05:52:42.825Z,96447.78
2022-10-05T05:55:20.271Z,96436.16
2022-10-05T05:57:54.353Z,96438.56
2022-10-05T06:00:26.115Z,96449.53
2022-10-05T06:02:58.426Z,96451.25
2022-10-05T06:05:32.134Z,96384.03
2022-10-05T06:08:04.290Z,96335.78
2022-10-05T06:10:41.429Z,96456.22
2022-10-05T06:13:16.650Z,96460.84
2022-10-05T06:15:49.234Z,96461.59
2022-10-05T06:18:20.582Z,96446.31
2022-10-05T06:20:55.996Z,96474.22
2022-10-05T06:23:29.027Z,96481.84
2022-10-05T06:26:19.063Z,96473.16
2022-10-05T06:28:53.658Z,96471.56
2022-10-05T06:31:36.711Z,96475.97
2022-10-05T06:34:18.411Z,96495.56
2022-10-05T06:36:51.998Z,96452.28
2022-10-05T06:39:37.847Z,96500.88
2022-10-05T06:42:22.119Z,96496.41
2022-10-05T06:45:01.541Z,96496.66
2022-10-05T06:47:38.773Z,96503.88
2022-10-05T06:50:16.537Z,96509.00
2022-10-05T06:52:59.188Z,96509.13
2022-10-05T06:55:38.895Z,96518.59
2022-10-05T06:58:22.069Z,96519.34
2022-10-05T07:00:55.267Z,96520.41
2022-10-05T07:03:34.526Z,96485.63
2022-10-05T07:06:11.757Z,96506.25
2022-10-05T07:08:54.948Z,96505.72
2022-10-05T07:11:38.286Z,96506.88
2022-10-05T07:14:29.188Z,96500.66
2022-10-05T07:17:09.989Z,96496.88
2022-10-05T07:19:44.704Z,96502.97
2022-10-05T07:22:37.437Z,96484.03
2022-10-05T07:25:14.003Z,96505.56
2022-10-05T07:27:51.799Z,96507.06
2022-10-05T07:30:20.436Z,96499.31
2022-10-05T07:33:00.317Z,96498.53
2022-10-05T07:35:58.530Z,96503.38
2022-10-05T07:38:33.033Z,96493.06
2022-10-05T07:41:07.522Z,96499.81
2022-10-05T07:44:02.804Z,96499.19
2022-10-05T07:46:42.591Z,96464.13
2022-10-05T07:49:18.944Z,96504.91
2022-10-05T07:51:50.169Z,96496.09
2022-10-05T07:54:24.555Z,96501.75
2022-10-05T07:56:59.786Z,96507.66
2022-10-05T07:59:33.665Z,96503.69
2022-10-05T08:02:13.336Z,96501.66
2022-10-05T08:04:51.827Z,96474.81
2022-10-05T08:07:20.283Z,96511.75
2022-10-05T08:09:55.324Z,96507.72
2022-10-05T08:12:40.596Z,96512.75
2022-10-05T08:15:15.644Z,96504.03
2022-10-05T08:17:51.597Z,96478.47
2022-10-05T08:20:41.316Z,96509.44
2022-10-05T08:23:25.191Z,96511.97
2022-10-05T08:26:07.266Z,96509.88
2022-10-05T08:28:39.142Z,96511.72
2022-10-05T08:31:17.863Z,96512.81
2022-10-05T08:33:55.898Z,96511.00
2022-10-05T08:36:53.723Z,96512.56
2022-10-05T08:39:24.848Z,96518.94
2022-10-05T08:42:43.141Z,96512.56
2022-10-05T08:45:40.657Z,96497.22
2022-10-05T08:48:26.732Z,96488.22
2022-10-05T08:51:29.096Z,96501.31
2022-10-05T08:54:23.895Z,96492.28
2022-10-05T08:57:02.031Z,96488.72
2022-10-05T08:59:54.555Z,96497.22
2022-10-05T09:02:33.003Z,96497.66
2022-10-05T09:05:22.880Z,96500.28
2022-10-05T09:08:20.902Z,96494.28
2022-10-05T09:11:06.989Z,96493.50
2022-10-05T09:13:53.900Z,96489.38
2022-10-05T09:16:45.684Z,96493.91
2022-10-05T09:20:10.390Z,96495.56
2022-10-05T09:23:02.773Z,96492.53
2022-10-05T09:25:43.380Z,96456.09
2022-10-05T09:28:26.580Z,96502.69
2022-10-05T09:31:17.509Z,96499.38
2022-10-05T09:34:16.859Z,96476.41
2022-10-05T09:37:20.134Z,96494.88
2022-10-05T09:40:40.571Z,96495.94
2022-10-05T09:43:59.169Z,96499.19
2022-10-05T09:46:45.287Z,96498.06
2022-10-05T09:49:30.872Z,96486.09
2022-10-05T09:52:20.656Z,96495.84
2022-10-05T09:55:31.079Z,96494.78
2022-10-05T09:58:20.384Z,96481.16
2022-10-05T10:01:09.620Z,96491.78
2022-10-05T10:04:15.483Z,96488.63
2022-10-05T10:07:31.472Z,96495.19
2022-10-05T10:10:22.776Z,96494.44
2022-10-05T10:13:12.751Z,96493.03
2022-10-05T10:16:16.571Z,96491.81
2022-10-05T10:19:01.537Z,96497.78
2022-10-05T10:21:55.927Z,96494.00
2022-10-05T10:24:43.677Z,96464.88
2022-10-05T10:27:30.152Z,96489.19
2022-10-05T10:30:36.273Z,96483.50
2022-10-05T10:33:34.076Z,96486.81
2022-10-05T10:36:07.911Z,96477.97
2022-10-05T10:38:54.849Z,96483.47
2022-10-05T10:41:47.287Z,96473.38
2022-10-05T10:45:00.882Z,96469.72
2022-10-05T10:48:02.041Z,96431.25
2022-10-05T10:50:59.417Z,96461.78
2022-10-05T10:54:06.153Z,96458.09
2022-10-05T10:56:57.056Z,96459.53
2022-10-05T11:00:01.603Z,96459.94
2022-10-05T11:03:00.390Z,96444.31
2022-10-05T11:05:48.846Z,96445.56
2022-10-05T11:08:46.500Z,96438.59
2022-10-05T11:11:27.165Z,96429.13
2022-10-05T11:14:22.622Z,96421.16
2022-10-05T11:17:23.162Z,96425.91
2022-10-05T11:20:18.619Z,96422.03
2022-10-05T11:22:59.901Z,96383.53
2022-10-05T11:25:50.072Z,96421.53
2022-10-05T11:28:39.095Z,96416.00
2022-10-05T11:31:45.213Z,96366.66
2022-10-05T11:34:49.969Z,96417.50
2022-10-05T11:37:36.253Z,96408.06
2022-10-05T11:40:33.259Z,96406.19
2022-10-05T11:43:35.172Z,96403.22
2022-10-05T11:46:09.364Z,96396.22
2022-10-05T11:48:53.352Z,96406.38
2022-10-05T11:51:39.076Z,96402.75
2022-10-05T11:54:27.193Z,96398.31
2022-10-05T11:57:01.949Z,96387.78
2022-10-05T11:59:39.458Z,96382.28
2022-10-05T12:02:43.945Z,96373.06
2022-10-05T12:05:21.201Z,96362.09
2022-10-05T12:08:03.881Z,96374.41
2022-10-05T12:10:37.813Z,96377.72
2022-10-05T12:13:22.109Z,96378.13
2022-10-05T12:15:55.562Z,96371.88
2022-10-05T12:18:42.079Z,96374.38
2022-10-05T12:21:17.413Z,96382.50
2022-10-05T12:23:51.527Z,96380.47
2022-10-05T12:26:25.812Z,96383.19
2022-10-05T12:28:59.188Z,96388.25
2022-10-05T12:31:38.313Z,96386.91
2022-10-05T12:34:18.645Z,96380.38
2022-10-05T12:37:04.156Z,96379.59
2022-10-05T12:39:44.654Z,96383.19
2022-10-05T12:42:26.440Z,96384.63
2022-10-05T12:45:16.746Z,96375.72
2022-10-05T12:48:01.604Z,96391.28
2022-10-05T12:50:33.901Z,96388.84
2022-10-05T12:53:15.399Z,96385.19
2022-10-05T12:55:50.285Z,96377.94
2022-10-05T12:58:28.158Z,96381.50
2022-10-05T13:01:17.955Z,96385.22
2022-10-05T13:03:53.743Z,96371.56
2022-10-05T13:06:32.266Z,96370.84
2022-10-05T13:09:10.175Z,96394.16
2022-10-05T13:11:45.916Z,96359.53
2022-10-05T13:14:35.383Z,96371.56
2022-10-05T13:17:14.985Z,96373.38
2022-10-05T13:19:47.274Z,96374.44
2022-10-05T13:22:28.515Z,96332.72
2022-10-05T13:25:09.426Z,96367.22
2022-10-05T13:27:41.947Z,96363.06
2022-10-05T13:30:15.113Z,96358.41
2022-10-05T13:32:48.055Z,96363.22
2022-10-05T13:35:36.285Z,96360.88
2022-10-05T13:38:17.108Z,96352.75
2022-10-05T13:40:49.756Z,96268.38
2022-10-05T13:43:26.181Z,96347.63
2022-10-05T13:45:57.130Z,96336.34
2022-10-05T13:48:47.503Z,96339.28
2022-10-05T13:51:23.132Z,96341.00
2022-10-05T13:53:57.391Z,96327.38
2022-10-05T13:56:31.042Z,96344.16
2022-10-05T13:59:11.931Z,96338.66
2022-10-05T14:01:43.143Z,96339.41
2022-10-05T14:04:19.107Z,96336.22
2022-10-05T14:06:47.702Z,96269.91
2022-10-05T14:09:29.805Z,96324.56
2022-10-05T14:12:15.644Z,96335.94
2022-10-05T14:14:49.228Z,96328.28
2022-10-05T14:17:32.820Z,96327.97
2022-10-05T14:20:04.176Z,96330.84
2022-10-05T14:22:42.725Z,96332.66
2022-10-05T14:25:17.163Z,96331.94
2022-10-05T14:27:52.163Z,96334.38
2022-10-05T14:30:23.664Z,96335.91
2022-10-05T14:32:56.123Z,96331.78
2022-10-05T14:35:29.294Z,96328.41
2022-10-05T14:38:00.213Z,96332.91
2022-10-05T14:40:33.742Z,96328.38
2022-10-05T14:43:18.161Z,96338.28
2022-10-05T14:45:55.312Z,96309.84
2022-10-05T14:48:23.465Z,96330.63
2022-10-05T14:50:58.028Z,96332.91
2022-10-05T14:53:26.862Z,96297.50
2022-10-05T14:56:29.533Z,96323.34
2022-10-05T14:59:30.756Z,96335.31
2022-10-05T15:02:15.747Z,96336.53
2022-10-05T15:04:50.053Z,96337.53
2022-10-05T15:07:26.303Z,96337.53
2022-10-05T15:10:29.529Z,96336.38
2022-10-05T15:13:10.625Z,96344.22
2022-10-05T15:15:45.829Z,96346.31
2022-10-05T15:18:21.642Z,96348.25
2022-10-05T15:20:58.565Z,96353.16
2022-10-05T15:23:35.854Z,96341.84
2022-10-05T15:26:21.648Z,96349.84
2022-10-05T15:28:57.162Z,96341.72
2022-10-05T15:31:35.999Z,96365.03
2022-10-05T15:34:10.310Z,96368.44
2022-10-05T15:36:44.381Z,96374.50
2022-10-05T15:39:27.016Z,96370.44
2022-10-05T15:42:00.783Z,96373.09
2022-10-05T15:44:38.521Z,96375.03
2022-10-05T15:47:08.772Z,96371.22
2022-10-05T15:49:45.564Z,96374.31
2022-10-05T15:52:23.931Z,96384.59
2022-10-05T15:55:25.860Z,96390.41
2022-10-05T15:58:08.443Z,96347.50
2022-10-05T16:00:42.583Z,96393.69
2022-10-05T16:03:19.275Z,96390.41
2022-10-05T16:06:07.635Z,96395.03
2022-10-05T16:08:51.496Z,96390.94
2022-10-05T16:11:31.204Z,96407.47
2022-10-05T16:14:09.892Z,96408.69
2022-10-05T16:16:46.522Z,96411.31
2022-10-05T16:19:21.599Z,96407.75
2022-10-05T16:22:02.090Z,96398.25
2022-10-05T16:24:51.638Z,96419.09
2022-10-05T16:27:28.935Z,96417.44
2022-10-05T16:30:02.807Z,96427.38
2022-10-05T16:32:38.378Z,96420.16
2022-10-05T16:35:17.512Z,96438.56
2022-10-05T16:37:56.213Z,96443.63
2022-10-05T16:40:29.929Z,96447.06
2022-10-05T16:43:10.760Z,96438.81
2022-10-05T16:46:00.026Z,96450.88
2022-10-05T16:48:30.703Z,96452.19
2022-10-05T16:51:17.896Z,96451.72
2022-10-05T16:53:51.081Z,96456.03
2022-10-05T16:56:25.143Z,96446.78
2022-10-05T16:59:08.171Z,96461.47
2022-10-05T17:01:48.489Z,96422.16
2022-10-05T17:04:25.956Z,96404.66
2022-10-05T17:07:17.887Z,96455.28
2022-10-05T17:10:03.173Z,96461.81
2022-10-05T17:12:51.140Z,96456.91
2022-10-05T17:15:33.732Z,96462.97
2022-10-05T17:18:23.536Z,96460.75
2022-10-05T17:20:59.104Z,96465.53
2022-10-05T17:23:33.195Z,96466.69
2022-10-05T17:26:12.819Z,96463.03
2022-10-05T17:28:45.408Z,96464.16
2022-10-05T17:31:18.522Z,96465.56
2022-10-05T17:34:11.458Z,96465.13
2022-10-05T17:36:45.115Z,96468.00
2022-10-05T17:39:17.080Z,96302.63
2022-10-05T17:41:45.515Z,96468.53
2022-10-05T17:44:26.229Z,96471.78
2022-10-05T17:46:57.614Z,96477.66
2022-10-05T17:50:08.900Z,96480.56
2022-10-05T17:52:56.801Z,96471.78
2022-10-05T17:55:44.093Z,96485.66
2022-10-05T17:59:00.801Z,96487.25
2022-10-05T18:01:30.614Z,96485.06
2022-10-05T18:04:42.405Z,96502.16
2022-10-05T18:07:20.795Z,96503.09
2022-10-05T18:09:56.285Z,96498.94
2022-10-05T18:12:40.806Z,96500.25
2022-10-05T18:15:45.200Z,96503.59
2022-10-05T18:18:38.659Z,96330.06
2022-10-05T18:21:18.445Z,96516.81
2022-10-05T18:24:01.274Z,96500.22
2022-10-05T18:26:38.754Z,96505.19
2022-10-05T18:29:43.850Z,96512.13
2022-10-05T18:32:24.838Z,96513.41
2022-10-05T18:35:02.310Z,96518.03
2022-10-05T18:37:43.624Z,96511.50
2022-10-05T18:40:31.161Z,96511.66
2022-10-05T18:43:07.523Z,96520.09
2022-10-05T18:45:42.897Z,96515.31
2022-10-05T18:48:25.200Z,96510.34
2022-10-05T18:50:58.701Z,96518.03
2022-10-05T18:53:40.446Z,96519.31
2022-10-05T18:56:20.733Z,96521.19
2022-10-05T18:59:00.337Z,96525.97
2022-10-05T19:01:52.248Z,96528.16
2022-10-05T19:04:31.666Z,96525.72
2022-10-05T19:07:12.956Z,96522.19
2022-10-05T19:09:56.407Z,96463.28
2022-10-05T19:12:38.092Z,96519.53
2022-10-05T19:15:20.387Z,96535.88
2022-10-05T19:18:11.667Z,96524.22
2022-10-05T19:20:46.099Z,96524.22
2022-10-05T19:23:27.752Z,96532.34
2022-10-05T19:26:03.788Z,96532.66
2022-10-05T19:28:38.146Z,96513.94
2022-10-05T19:31:24.259Z,96493.06
2022-10-05T19:34:07.832Z,96541.88
2022-10-05T19:36:52.201Z,96532.75
2022-10-05T19:39:29.727Z,96541.63
2022-10-05T19:42:08.288Z,96540.59
2022-10-05T19:44:49.102Z,96547.38
2022-10-05T19:47:25.045Z,96552.66
2022-10-05T19:50:00.429Z,96552.09
2022-10-05T19:52:39.568Z,96559.88
2022-10-05T19:55:14.854Z,96552.78
2022-10-05T19:57:49.752Z,96544.06
2022-10-05T20:00:24.652Z,96551.84
2022-10-05T20:02:53.313Z,96550.66
2022-10-05T20:05:21.401Z,96564.31
2022-10-05T20:07:50.626Z,96566.50
2022-10-05T20:10:29.532Z,96565.50
2022-10-05T20:12:59.055Z,96568.31
2022-10-05T20:15:46.219Z,96557.50
2022-10-05T20:18:54.213Z,96557.50
2022-10-05T20:21:43.584Z,96551.03
2022-10-05T20:24:15.573Z,96563.78
2022-10-05T20:27:04.325Z,96414.94
2022-10-05T20:29:36.558Z,96545.72
2022-10-05T20:32:08.299Z,96547.38
2022-10-05T20:34:37.444Z,96554.56
2022-10-05T20:37:05.372Z,96564.38
2022-10-05T20:39:34.612Z,96554.44
2022-10-05T20:42:02.436Z,96567.03
2022-10-05T20:44:30.443Z,96570.53
2022-10-05T20:46:58.675Z,96570.84
2022-10-05T20:49:27.131Z,96570.03
2022-10-05T20:51:56.620Z,96571.25
2022-10-05T20:54:25.334Z,96568.44
2022-10-05T20:56:55.676Z,96562.63
2022-10-05T20:59:24.444Z,96571.16
2022-10-05T21:01:52.876Z,96572.41
2022-10-05T21:04:23.508Z,96553.66
2022-10-05T21:06:51.802Z,96565.97
2022-10-05T21:09:21.412Z,96569.28
2022-10-05T21:11:52.877Z,96565.19
2022-10-05T21:14:22.916Z,96567.66
2022-10-05T21:16:50.942Z,96573.06
2022-10-05T21:19:18.883Z,96566.88
2022-10-05T21:21:47.459Z,96522.13
2022-10-05T21:24:17.334Z,96571.69
2022-10-05T21:26:45.782Z,96405.16
2022-10-05T21:29:13.907Z,96570.69
2022-10-05T21:31:43.159Z,96569.66
2022-10-05T21:34:11.024Z,96571.56
2022-10-05T21:36:38.853Z,96579.06
2022-10-05T21:39:06.675Z,96578.78
2022-10-05T21:41:34.551Z,96572.59
2022-10-05T21:44:02.424Z,96572.50
2022-10-05T21:46:31.601Z,96572.28
2022-10-05T21:49:00.767Z,96567.28
2022-10-05T21:51:28.755Z,96566.56
2022-10-05T21:54:01.723Z,96574.56
2022-10-05T21:56:32.226Z,96572.97
2022-10-05T21:59:02.003Z,96571.44
2022-10-05T22:01:29.840Z,96562.66
2022-10-05T22:03:57.996Z,96565.34
2022-10-05T22:06:27.184Z,96571.03
2022-10-05T22:08:55.075Z,96565.44
2022-10-05T22:11:23.103Z,96560.56
2022-10-05T22:13:53.485Z,96571.69
2022-10-05T22:16:24.666Z,96570.97
2022-10-05T22:18:53.643Z,96556.78
2022-10-05T22:21:22.148Z,96562.88
2022-10-05T22:23:51.367Z,96560.75
2022-10-05T22:26:22.062Z,96575.13
2022-10-05T22:28:52.470Z,96562.31
2022-10-05T22:31:20.517Z,96565.31
2022-10-05T22:33:48.367Z,96561.53
2022-10-05T22:36:17.065Z,96568.00
2022-10-05T22:38:46.608Z,96554.91
2022-10-05T22:41:18.262Z,96565.25
2022-10-05T22:43:48.761Z,96563.16
2022-10-05T22:46:17.143Z,96562.84
2022-10-05T22:48:45.032Z,96558.06
2022-10-05T22:51:13.131Z,96553.84
2022-10-05T22:53:40.951Z,96562.22
2022-10-05T22:56:10.612Z,96564.69
2022-10-05T22:58:40.652Z,96563.31
2022-10-05T23:01:10.197Z,96548.28
2022-10-05T23:03:38.153Z,96548.78
2022-10-05T23:06:08.298Z,96547.59
2022-10-05T23:08:37.691Z,96555.53
2022-10-05T23:11:06.922Z,96541.41
2022-10-05T23:13:35.004Z,96554.72
2022-10-05T23:16:08.968Z,96542.78
2022-10-05T23:18:36.845Z,96546.59
2022-10-05T23:21:07.363Z,96552.31
2022-10-05T23:23:37.042Z,96556.44
2022-10-05T23:26:05.944Z,96538.38
2022-10-05T23:28:34.323Z,96560.34
2022-10-05T23:31:04.132Z,96568.41
2022-10-05T23:33:33.743Z,96569.53
2022-10-05T23:36:02.641Z,96565.72
2022-10-05T23:38:31.003Z,96556.34
2022-10-05T23:40:59.845Z,96556.69
2022-10-05T23:43:28.509Z,96528.47
2022-10-05T23:45:56.824Z,96561.28
2022-10-05T23:48:25.159Z,96556.47
2022-10-05T23:50:55.719Z,96542.63
2022-10-05T23:53:23.814Z,96556.69
2022-10-05T23:55:52.336Z,96535.50
2022-10-05T23:58:20.941Z,96557.94
